createdAt,value
2024-03-24T00:00:28.962Z,0.00
2024-03-24T00:01:28.890Z,0.00
2024-03-24T00:02:28.912Z,0.00
2024-03-24T00:03:28.882Z,0.00
2024-03-24T00:04:28.858Z,0.00
2024-03-24T00:05:28.877Z,0.00
2024-03-24T00:06:28.825Z,0.00
2024-03-24T00:07:28.834Z,0.00
2024-03-24T00:08:28.809Z,0.00
2024-03-24T00:09:28.821Z,0.00
2024-03-24T00:10:28.862Z,0.00
2024-03-24T00:11:28.832Z,0.00
2024-03-24T00:12:28.753Z,0.00
2024-03-24T00:13:28.773Z,0.00
2024-03-24T00:14:28.744Z,0.00
2024-03-24T00:15:28.736Z,0.00
2024-03-24T00:16:28.709Z,0.00
2024-03-24T00:17:28.767Z,0.00
2024-03-24T00:18:28.717Z,0.00
2024-03-24T00:19:28.681Z,0.00
2024-03-24T00:20:28.636Z,0.00
2024-03-24T00:21:28.648Z,0.00
2024-03-24T00:22:28.615Z,0.00
2024-03-24T00:23:28.625Z,0.00
2024-03-24T00:24:28.592Z,0.00
2024-03-24T00:25:28.605Z,0.00
2024-03-24T00:26:28.604Z,0.00
2024-03-24T00:27:28.558Z,0.00
2024-03-24T00:28:28.543Z,0.00
2024-03-24T00:29:28.549Z,0.00
2024-03-24T00:30:28.549Z,0.00
2024-03-24T00:31:28.522Z,0.00
2024-03-24T00:32:28.526Z,0.00
2024-03-24T00:33:28.525Z,0.00
2024-03-24T00:34:28.499Z,0.00
2024-03-24T00:35:28.494Z,0.00
2024-03-24T00:36:28.454Z,0.00
2024-03-24T00:37:28.442Z,0.00
2024-03-24T00:38:28.593Z,0.00
2024-03-24T00:39:28.436Z,0.00
2024-03-24T00:40:28.398Z,0.00
2024-03-24T00:41:28.466Z,0.00
2024-03-24T00:42:28.372Z,0.00
2024-03-24T00:43:28.358Z,0.00
2024-03-24T00:44:28.352Z,0.00
2024-03-24T00:45:28.341Z,0.00
2024-03-24T00:46:28.370Z,0.00
2024-03-24T00:47:28.355Z,0.00
2024-03-24T00:48:28.301Z,0.00
2024-03-24T00:49:28.286Z,0.00
2024-03-24T00:50:28.278Z,0.00
2024-03-24T00:51:28.260Z,0.00
2024-03-24T00:52:28.255Z,0.00
2024-03-24T00:53:28.275Z,0.00
2024-03-24T00:54:28.214Z,0.00
2024-03-24T00:55:28.235Z,0.00
2024-03-24T00:56:28.191Z,0.00
2024-03-24T00:57:28.201Z,0.00
2024-03-24T00:58:28.188Z,0.00
2024-03-24T00:59:28.170Z,0.00
2024-03-24T01:00:28.214Z,0.00
2024-03-24T01:01:28.170Z,0.00
2024-03-24T01:02:28.105Z,0.00
2024-03-24T01:03:28.116Z,0.00
2024-03-24T01:04:28.082Z,0.00
2024-03-24T01:05:28.132Z,0.00
2024-03-24T01:06:28.077Z,0.00
2024-03-24T01:07:28.095Z,0.00
2024-03-24T01:08:28.049Z,0.00
2024-03-24T01:09:28.040Z,0.00
2024-03-24T01:10:28.058Z,0.00
2024-03-24T01:11:28.026Z,0.00
2024-03-24T01:12:28.014Z,0.00
2024-03-24T01:13:27.998Z,0.00
2024-03-24T01:14:27.955Z,0.00
2024-03-24T01:15:27.979Z,0.00
2024-03-24T01:16:27.950Z,0.00
2024-03-24T01:17:27.968Z,0.00
2024-03-24T01:18:27.934Z,0.00
2024-03-24T01:19:30.794Z,0.00
2024-03-24T01:20:27.881Z,0.00
2024-03-24T01:21:27.888Z,0.00
2024-03-24T01:22:27.860Z,0.00
2024-03-24T01:23:27.885Z,0.00
2024-03-24T01:24:27.836Z,0.00
2024-03-24T01:25:27.830Z,0.00
2024-03-24T01:26:27.809Z,0.00
2024-03-24T01:27:27.812Z,0.00
2024-03-24T01:28:27.804Z,0.00
2024-03-24T01:29:27.790Z,0.00
2024-03-24T01:30:27.771Z,0.00
2024-03-24T01:31:27.768Z,0.00
2024-03-24T01:32:27.766Z,0.00
2024-03-24T01:33:27.737Z,0.00
2024-03-24T01:34:27.746Z,0.00
2024-03-24T01:35:27.733Z,0.00
2024-03-24T01:36:27.679Z,0.00
2024-03-24T01:37:27.705Z,0.00
2024-03-24T01:38:27.675Z,0.00
2024-03-24T01:39:27.665Z,0.00
2024-03-24T01:40:27.643Z,0.00
2024-03-24T01:41:27.644Z,0.00
2024-03-24T01:42:27.599Z,0.00
2024-03-24T01:43:27.593Z,0.00
2024-03-24T01:44:27.576Z,0.00
2024-03-24T01:45:27.596Z,0.00
2024-03-24T01:46:27.553Z,0.00
2024-03-24T01:47:27.593Z,0.00
2024-03-24T01:48:27.570Z,0.00
2024-03-24T01:49:27.536Z,0.00
2024-03-24T01:50:27.544Z,0.00
2024-03-24T01:51:27.510Z,0.00
2024-03-24T01:52:27.496Z,0.00
2024-03-24T01:53:27.498Z,0.00
2024-03-24T01:54:27.476Z,0.00
2024-03-24T01:55:27.474Z,0.00
2024-03-24T01:56:27.450Z,0.00
2024-03-24T01:57:27.477Z,0.00
2024-03-24T01:58:27.417Z,0.00
2024-03-24T01:59:27.411Z,0.00
2024-03-24T02:00:27.399Z,0.00
2024-03-24T02:01:27.375Z,0.00
2024-03-24T02:02:27.366Z,0.00
2024-03-24T02:03:27.358Z,0.00
2024-03-24T02:04:27.360Z,0.00
2024-03-24T02:05:27.363Z,0.00
2024-03-24T02:06:30.483Z,0.00
2024-03-24T02:07:27.404Z,0.00
2024-03-24T02:08:27.278Z,0.00
2024-03-24T02:09:27.282Z,0.00
2024-03-24T02:10:27.273Z,0.00
2024-03-24T02:11:27.294Z,0.00
2024-03-24T02:12:27.237Z,0.00
2024-03-24T02:13:27.253Z,0.00
2024-03-24T02:14:27.234Z,0.00
2024-03-24T02:15:27.239Z,0.00
2024-03-24T02:16:27.200Z,0.00
2024-03-24T02:17:27.219Z,0.00
2024-03-24T02:18:27.158Z,0.00
2024-03-24T02:19:27.151Z,0.00
2024-03-24T02:20:27.154Z,0.00
2024-03-24T02:21:27.136Z,0.00
2024-03-24T02:22:27.117Z,0.00
2024-03-24T02:23:27.160Z,0.00
2024-03-24T02:24:27.103Z,0.00
2024-03-24T02:25:27.067Z,0.00
2024-03-24T02:26:27.087Z,0.00
2024-03-24T02:27:27.099Z,0.00
2024-03-24T02:28:27.041Z,0.00
2024-03-24T02:29:27.054Z,0.00
2024-03-24T02:30:27.032Z,0.00
2024-03-24T02:31:27.032Z,0.00
2024-03-24T02:32:27.018Z,0.00
2024-03-24T02:33:26.965Z,0.00
2024-03-24T02:34:27.006Z,0.00
2024-03-24T02:35:26.944Z,0.00
2024-03-24T02:36:26.927Z,0.00
2024-03-24T02:37:26.957Z,0.00
2024-03-24T02:38:26.911Z,0.00
2024-03-24T02:39:26.912Z,0.00
2024-03-24T02:40:26.883Z,0.00
2024-03-24T02:41:26.883Z,0.00
2024-03-24T02:42:26.948Z,0.00
2024-03-24T02:43:26.868Z,0.00
2024-03-24T02:44:26.856Z,0.00
2024-03-24T02:45:26.821Z,0.00
2024-03-24T02:46:26.806Z,0.00
2024-03-24T02:47:26.858Z,0.00
2024-03-24T02:48:26.791Z,0.00
2024-03-24T02:49:26.779Z,0.00
2024-03-24T02:50:26.778Z,0.00
2024-03-24T02:51:26.756Z,0.00
2024-03-24T02:52:26.731Z,0.00
2024-03-24T02:53:26.729Z,0.00
2024-03-24T02:54:26.723Z,0.00
2024-03-24T02:55:26.720Z,0.00
2024-03-24T02:56:26.727Z,0.00
2024-03-24T02:57:26.738Z,0.00
2024-03-24T02:58:26.650Z,0.00
2024-03-24T02:59:26.660Z,0.00
2024-03-24T03:00:26.643Z,0.00
2024-03-24T03:01:26.606Z,0.00
2024-03-24T03:02:26.636Z,0.00
2024-03-24T03:03:26.607Z,0.00
2024-03-24T03:04:26.584Z,0.00
2024-03-24T03:05:26.565Z,0.00
2024-03-24T03:06:26.560Z,0.00
2024-03-24T03:07:26.568Z,0.00
2024-03-24T03:08:26.542Z,0.00
2024-03-24T03:09:26.514Z,0.00
2024-03-24T03:10:26.513Z,0.00
2024-03-24T03:11:26.495Z,0.00
2024-03-24T03:12:26.491Z,0.00
2024-03-24T03:13:26.502Z,0.00
2024-03-24T03:14:26.442Z,0.00
2024-03-24T03:15:26.460Z,0.00
2024-03-24T03:16:26.412Z,0.00
2024-03-24T03:17:26.452Z,0.00
2024-03-24T03:18:26.415Z,0.00
2024-03-24T03:19:26.371Z,0.00
2024-03-24T03:20:26.392Z,0.00
2024-03-24T03:21:26.364Z,0.00
2024-03-24T03:22:26.373Z,0.00
2024-03-24T03:23:26.334Z,0.00
2024-03-24T03:24:26.342Z,0.00
2024-03-24T03:25:26.321Z,0.00
2024-03-24T03:26:26.323Z,0.00
2024-03-24T03:27:26.305Z,0.00
2024-03-24T03:28:26.274Z,0.00
2024-03-24T03:29:26.292Z,0.00
2024-03-24T03:30:26.255Z,0.00
2024-03-24T03:31:26.222Z,0.00
2024-03-24T03:32:26.236Z,0.00
2024-03-24T03:33:26.199Z,0.00
2024-03-24T03:34:26.255Z,0.00
2024-03-24T03:35:26.186Z,0.00
2024-03-24T03:36:26.180Z,0.00
2024-03-24T03:37:26.206Z,0.00
2024-03-24T03:38:26.143Z,0.00
2024-03-24T03:39:26.173Z,0.00
2024-03-24T03:40:26.114Z,0.00
2024-03-24T03:41:26.105Z,0.00
2024-03-24T03:42:26.086Z,0.00
2024-03-24T03:43:26.089Z,0.00
2024-03-24T03:44:26.066Z,0.00
2024-03-24T03:45:26.055Z,0.00
2024-03-24T03:46:26.050Z,0.00
2024-03-24T03:47:26.032Z,0.00
2024-03-24T03:48:26.029Z,0.00
2024-03-24T03:49:26.008Z,0.00
2024-03-24T03:50:32.002Z,0.00
2024-03-24T03:51:25.959Z,0.00
2024-03-24T03:52:25.964Z,0.00
2024-03-24T03:53:26.207Z,0.00
2024-03-24T03:54:25.940Z,0.00
2024-03-24T03:55:25.937Z,0.00
2024-03-24T03:56:25.911Z,0.00
2024-03-24T03:57:25.917Z,0.00
2024-03-24T03:58:25.898Z,0.00
2024-03-24T03:59:25.860Z,0.00
2024-03-24T04:00:25.871Z,0.00
2024-03-24T04:01:25.852Z,0.00
2024-03-24T04:02:25.854Z,0.00
2024-03-24T04:03:25.822Z,0.00
2024-03-24T04:04:25.824Z,0.00
2024-03-24T04:05:25.796Z,0.00
2024-03-24T04:06:25.790Z,0.00
2024-03-24T04:07:25.775Z,0.00
2024-03-24T04:08:25.788Z,0.00
2024-03-24T04:09:25.740Z,0.00
2024-03-24T04:10:25.725Z,0.00
2024-03-24T04:11:25.716Z,0.00
2024-03-24T04:12:25.714Z,0.00
2024-03-24T04:13:25.697Z,0.00
2024-03-24T04:14:25.694Z,0.00
2024-03-24T04:15:25.660Z,0.00
2024-03-24T04:16:25.665Z,0.00
2024-03-24T04:17:25.684Z,0.00
2024-03-24T04:18:25.628Z,0.00
2024-03-24T04:19:25.617Z,0.00
2024-03-24T04:20:25.594Z,0.00
2024-03-24T04:21:25.599Z,0.00
2024-03-24T04:22:25.592Z,0.00
2024-03-24T04:23:25.585Z,0.00
2024-03-24T04:24:25.565Z,0.00
2024-03-24T04:25:25.547Z,0.00
2024-03-24T04:26:25.516Z,0.00
2024-03-24T04:27:25.521Z,4.00
2024-03-24T04:28:25.501Z,4.00
2024-03-24T04:29:25.499Z,4.00
2024-03-24T04:30:25.502Z,0.00
2024-03-24T04:31:25.470Z,4.00
2024-03-24T04:32:25.493Z,4.00
2024-03-24T04:33:25.449Z,4.00
2024-03-24T04:34:25.439Z,8.00
2024-03-24T04:35:25.442Z,4.00
2024-03-24T04:36:25.442Z,8.00
2024-03-24T04:37:25.410Z,8.00
2024-03-24T04:38:25.375Z,8.00
2024-03-24T04:39:25.374Z,12.00
2024-03-24T04:40:25.366Z,12.00
2024-03-24T04:41:25.325Z,16.00
2024-03-24T04:42:25.314Z,20.00
2024-03-24T04:43:25.300Z,20.00
2024-03-24T04:44:25.297Z,24.00
2024-03-24T04:45:25.270Z,32.00
2024-03-24T04:46:25.279Z,32.00
2024-03-24T04:47:25.286Z,36.00
2024-03-24T04:48:25.252Z,44.00
2024-03-24T04:49:25.235Z,52.00
2024-03-24T04:50:25.235Z,60.00
2024-03-24T04:51:25.195Z,68.00
2024-03-24T04:52:25.192Z,72.00
2024-03-24T04:53:25.207Z,84.00
2024-03-24T04:54:25.178Z,92.00
2024-03-24T04:55:25.153Z,104.00
2024-03-24T04:56:25.163Z,116.00
2024-03-24T04:57:25.137Z,128.00
2024-03-24T04:58:25.125Z,140.00
2024-03-24T04:59:25.102Z,152.00
2024-03-24T05:00:25.102Z,164.00
2024-03-24T05:01:25.090Z,180.00
2024-03-24T05:02:25.072Z,196.00
2024-03-24T05:03:25.081Z,208.00
2024-03-24T05:04:25.046Z,224.00
2024-03-24T05:05:25.029Z,240.00
2024-03-24T05:06:25.022Z,252.00
2024-03-24T05:07:24.991Z,272.00
2024-03-24T05:08:25.006Z,292.00
2024-03-24T05:09:24.998Z,312.00
2024-03-24T05:10:24.979Z,340.00
2024-03-24T05:11:24.942Z,364.00
2024-03-24T05:12:24.938Z,384.00
2024-03-24T05:13:24.947Z,408.00
2024-03-24T05:14:24.926Z,432.00
2024-03-24T05:15:24.909Z,456.00
2024-03-24T05:16:24.898Z,484.00
2024-03-24T05:17:24.877Z,512.00
2024-03-24T05:18:24.857Z,532.00
2024-03-24T05:19:24.854Z,560.00
2024-03-24T05:20:24.868Z,600.00
2024-03-24T05:21:24.827Z,636.00
2024-03-24T05:22:24.804Z,676.00
2024-03-24T05:23:24.791Z,708.00
2024-03-24T05:24:24.795Z,736.00
2024-03-24T05:25:24.766Z,756.00
2024-03-24T05:26:24.762Z,780.00
2024-03-24T05:27:24.756Z,808.00
2024-03-24T05:28:25.732Z,864.00
2024-03-24T05:29:24.711Z,936.00
2024-03-24T05:30:24.709Z,1020.00
2024-03-24T05:31:24.688Z,1084.00
2024-03-24T05:32:24.713Z,1136.00
2024-03-24T05:33:24.663Z,1172.00
2024-03-24T05:34:24.663Z,1188.00
2024-03-24T05:35:24.634Z,1220.00
2024-03-24T05:36:24.643Z,1256.00
2024-03-24T05:37:24.622Z,1292.00
2024-03-24T05:38:24.597Z,1320.00
2024-03-24T05:39:24.602Z,1356.00
2024-03-24T05:40:24.594Z,1400.00
2024-03-24T05:41:24.572Z,1428.00
2024-03-24T05:42:24.564Z,1428.00
2024-03-24T05:43:24.525Z,1416.00
2024-03-24T05:44:24.522Z,1416.00
2024-03-24T05:45:24.525Z,1424.00
2024-03-24T05:46:24.493Z,1460.00
2024-03-24T05:47:24.505Z,1496.00
2024-03-24T05:48:24.515Z,1552.00
2024-03-24T05:49:24.482Z,1624.00
2024-03-24T05:50:24.465Z,1692.00
2024-03-24T05:51:24.427Z,1684.00
2024-03-24T05:52:24.464Z,1632.00
2024-03-24T05:53:24.400Z,1584.00
2024-03-24T05:54:24.419Z,1584.00
2024-03-24T05:55:24.398Z,1592.00
2024-03-24T05:56:24.365Z,1644.00
2024-03-24T05:57:24.359Z,1660.00
2024-03-24T05:58:24.385Z,1644.00
2024-03-24T05:59:24.343Z,1688.00
2024-03-24T06:00:24.382Z,1748.00
2024-03-24T06:01:24.319Z,1828.00
2024-03-24T06:02:24.295Z,1880.00
2024-03-24T06:03:24.274Z,1944.00
2024-03-24T06:04:24.300Z,1988.00
2024-03-24T06:05:24.258Z,1992.00
2024-03-24T06:06:24.239Z,1968.00
2024-03-24T06:07:24.222Z,1964.00
2024-03-24T06:08:24.225Z,2008.00
2024-03-24T06:09:24.243Z,2056.00
2024-03-24T06:10:24.233Z,2108.00
2024-03-24T06:11:24.191Z,2160.00
2024-03-24T06:12:24.182Z,2220.00
2024-03-24T06:13:24.161Z,2276.00
2024-03-24T06:14:24.168Z,2344.00
2024-03-24T06:15:24.163Z,2416.00
2024-03-24T06:16:24.115Z,2500.00
2024-03-24T06:17:24.113Z,2588.00
2024-03-24T06:18:24.090Z,2640.00
2024-03-24T06:19:24.087Z,2684.00
2024-03-24T06:20:24.075Z,2752.00
2024-03-24T06:21:24.050Z,2844.00
2024-03-24T06:22:24.058Z,2908.00
2024-03-24T06:23:24.039Z,2980.00
2024-03-24T06:24:24.013Z,3088.00
2024-03-24T06:25:24.074Z,3152.00
2024-03-24T06:26:24.001Z,3328.00
2024-03-24T06:27:23.990Z,2984.00
2024-03-24T06:28:23.975Z,2988.00
2024-03-24T06:29:23.993Z,2928.00
2024-03-24T06:30:23.944Z,2960.00
2024-03-24T06:31:23.943Z,3016.00
2024-03-24T06:32:23.945Z,3060.00
2024-03-24T06:33:23.906Z,3088.00
2024-03-24T06:34:23.876Z,3012.00
2024-03-24T06:35:23.864Z,2984.00
2024-03-24T06:36:23.867Z,3024.00
2024-03-24T06:37:23.866Z,3084.00
2024-03-24T06:38:23.831Z,3168.00
2024-03-24T06:39:23.835Z,3264.00
2024-03-24T06:40:23.808Z,3356.00
2024-03-24T06:41:23.818Z,3560.00
2024-03-24T06:42:23.780Z,3492.00
2024-03-24T06:43:23.791Z,3476.00
2024-03-24T06:44:23.746Z,3508.00
2024-03-24T06:45:23.733Z,3496.00
2024-03-24T06:46:23.720Z,3592.00
2024-03-24T06:47:23.744Z,3740.00
2024-03-24T06:48:23.708Z,4088.00
2024-03-24T06:49:23.699Z,4156.00
2024-03-24T06:50:23.690Z,4180.00
2024-03-24T06:51:23.662Z,4088.00
2024-03-24T06:52:23.640Z,4212.00
2024-03-24T06:53:23.642Z,4016.00
2024-03-24T06:54:23.635Z,4144.00
2024-03-24T06:55:23.652Z,4416.00
2024-03-24T06:56:23.588Z,4496.00
2024-03-24T06:57:23.591Z,4552.00
2024-03-24T06:58:23.571Z,4600.00
2024-03-24T06:59:23.581Z,4640.00
2024-03-24T07:00:23.538Z,4652.00
2024-03-24T07:01:23.543Z,4640.00
2024-03-24T07:02:23.516Z,4728.00
2024-03-24T07:03:23.542Z,4700.00
2024-03-24T07:04:23.499Z,4672.00
2024-03-24T07:05:23.515Z,4704.00
2024-03-24T07:06:23.488Z,4696.00
2024-03-24T07:07:23.475Z,4668.00
2024-03-24T07:08:23.434Z,4596.00
2024-03-24T07:09:23.457Z,4028.00
2024-03-24T07:10:23.443Z,4388.00
2024-03-24T07:11:23.420Z,4476.00
2024-03-24T07:12:23.402Z,4352.00
2024-03-24T07:13:23.389Z,4288.00
2024-03-24T07:14:23.368Z,4176.00
2024-03-24T07:15:23.373Z,3708.00
2024-03-24T07:16:23.377Z,4060.00
2024-03-24T07:17:23.324Z,4252.00
2024-03-24T07:18:23.310Z,4348.00
2024-03-24T07:19:23.299Z,4352.00
2024-03-24T07:20:23.290Z,4416.00
2024-03-24T07:21:23.278Z,4564.00
2024-03-24T07:22:23.288Z,4692.00
2024-03-24T07:23:23.251Z,4588.00
2024-03-24T07:24:23.254Z,4580.00
2024-03-24T07:25:23.272Z,4588.00
2024-03-24T07:26:24.888Z,4660.00
2024-03-24T07:27:23.194Z,4800.00
2024-03-24T07:28:23.219Z,4900.00
2024-03-24T07:29:23.170Z,4636.00
2024-03-24T07:30:23.197Z,4204.00
2024-03-24T07:31:23.178Z,4408.00
2024-03-24T07:32:23.137Z,4704.00
2024-03-24T07:33:23.118Z,4788.00
2024-03-24T07:34:23.133Z,4320.00
2024-03-24T07:35:23.106Z,4460.00
2024-03-24T07:36:23.087Z,4456.00
2024-03-24T07:37:23.096Z,4896.00
2024-03-24T07:38:23.096Z,4848.00
2024-03-24T07:39:23.043Z,4844.00
2024-03-24T07:40:23.069Z,4788.00
2024-03-24T07:41:23.038Z,4508.00
2024-03-24T07:42:23.000Z,4764.00
2024-03-24T07:43:23.050Z,4728.00
2024-03-24T07:44:22.989Z,4752.00
2024-03-24T07:45:22.979Z,4884.00
2024-03-24T07:46:22.976Z,5064.00
2024-03-24T07:47:22.946Z,4900.00
2024-03-24T07:48:22.939Z,4408.00
2024-03-24T07:49:22.968Z,4888.00
2024-03-24T07:50:22.935Z,4964.00
2024-03-24T07:51:22.885Z,4248.00
2024-03-24T07:52:22.895Z,5004.00
2024-03-24T07:53:22.862Z,4928.00
2024-03-24T07:54:22.844Z,4996.00
2024-03-24T07:55:22.906Z,5172.00
2024-03-24T07:56:22.851Z,4996.00
2024-03-24T07:57:22.813Z,4576.00
2024-03-24T07:58:22.800Z,4388.00
2024-03-24T07:59:22.785Z,5248.00
2024-03-24T08:00:22.780Z,5320.00
2024-03-24T08:01:22.847Z,5172.00
2024-03-24T08:02:22.740Z,4248.00
2024-03-24T08:03:22.746Z,4768.00
2024-03-24T08:04:22.735Z,5788.00
2024-03-24T08:05:22.716Z,6624.00
2024-03-24T08:06:22.703Z,6196.00
2024-03-24T08:07:22.708Z,4476.00
2024-03-24T08:08:22.688Z,4228.00
2024-03-24T08:09:22.670Z,4460.00
2024-03-24T08:10:22.691Z,5612.00
2024-03-24T08:11:22.625Z,6420.00
2024-03-24T08:12:22.636Z,5556.00
2024-03-24T08:13:22.644Z,4832.00
2024-03-24T08:14:22.590Z,4468.00
2024-03-24T08:15:22.594Z,5712.00
2024-03-24T08:16:22.585Z,5864.00
2024-03-24T08:17:22.572Z,4688.00
2024-03-24T08:18:22.530Z,4636.00
2024-03-24T08:19:22.575Z,5328.00
2024-03-24T08:20:22.521Z,5288.00
2024-03-24T08:21:22.501Z,4692.00
2024-03-24T08:22:22.523Z,5264.00
2024-03-24T08:23:22.483Z,5752.00
2024-03-24T08:24:22.470Z,5312.00
2024-03-24T08:25:22.480Z,5176.00
2024-03-24T08:26:22.429Z,5212.00
2024-03-24T08:27:22.447Z,5264.00
2024-03-24T08:28:22.430Z,5328.00
2024-03-24T08:29:22.402Z,4920.00
2024-03-24T08:30:22.376Z,5424.00
2024-03-24T08:31:22.384Z,5776.00
2024-03-24T08:32:22.363Z,5832.00
2024-03-24T08:33:22.380Z,5420.00
2024-03-24T08:34:22.352Z,5740.00
2024-03-24T08:35:24.314Z,5876.00
2024-03-24T08:36:22.319Z,6032.00
2024-03-24T08:37:22.346Z,6348.00
2024-03-24T08:38:22.284Z,5800.00
2024-03-24T08:39:22.292Z,6436.00
2024-03-24T08:40:22.267Z,5960.00
2024-03-24T08:41:22.239Z,6428.00
2024-03-24T08:42:22.240Z,6208.00
2024-03-24T08:43:22.232Z,5548.00
2024-03-24T08:44:22.191Z,5908.00
2024-03-24T08:45:22.201Z,6392.00
2024-03-24T08:46:22.215Z,6404.00
2024-03-24T08:47:22.160Z,7332.00
2024-03-24T08:48:27.446Z,7052.00
2024-03-24T08:49:22.175Z,6124.00
2024-03-24T08:50:22.122Z,6088.00
2024-03-24T08:51:22.131Z,6364.00
2024-03-24T08:52:22.108Z,6452.00
2024-03-24T08:53:22.083Z,5900.00
2024-03-24T08:54:22.076Z,6028.00
2024-03-24T08:55:22.092Z,5844.00
2024-03-24T08:56:22.039Z,5908.00
2024-03-24T08:57:22.044Z,6136.00
2024-03-24T08:58:22.037Z,6020.00
2024-03-24T08:59:22.016Z,6196.00
2024-03-24T09:00:22.001Z,6564.00
2024-03-24T09:01:22.050Z,6940.00
2024-03-24T09:02:21.971Z,7176.00
2024-03-24T09:03:21.969Z,7372.00
2024-03-24T09:04:21.959Z,8184.00
2024-03-24T09:05:21.928Z,8428.00
2024-03-24T09:06:21.916Z,8240.00
2024-03-24T09:07:21.929Z,8300.00
2024-03-24T09:08:21.904Z,8608.00
2024-03-24T09:09:23.596Z,7348.00
2024-03-24T09:10:21.879Z,7184.00
2024-03-24T09:11:21.855Z,6924.00
2024-03-24T09:12:21.838Z,6660.00
2024-03-24T09:13:21.823Z,6884.00
2024-03-24T09:14:21.815Z,6704.00
2024-03-24T09:15:21.810Z,6852.00
2024-03-24T09:16:21.824Z,6556.00
2024-03-24T09:17:21.785Z,6348.00
2024-03-24T09:18:21.819Z,7148.00
2024-03-24T09:19:21.758Z,7604.00
2024-03-24T09:20:21.728Z,7408.00
2024-03-24T09:21:21.744Z,7168.00
2024-03-24T09:22:21.715Z,7256.00
2024-03-24T09:23:21.720Z,7664.00
2024-03-24T09:24:21.692Z,8276.00
2024-03-24T09:25:21.687Z,9284.00
2024-03-24T09:26:21.675Z,8296.00
2024-03-24T09:27:21.659Z,8516.00
2024-03-24T09:28:21.649Z,8508.00
2024-03-24T09:29:21.629Z,8732.00
2024-03-24T09:30:21.627Z,8860.00
2024-03-24T09:31:21.599Z,8932.00
2024-03-24T09:32:21.646Z,9036.00
2024-03-24T09:33:21.610Z,10188.00
2024-03-24T09:34:21.587Z,9832.00
2024-03-24T09:35:21.555Z,9660.00
2024-03-24T09:36:21.577Z,8984.00
2024-03-24T09:37:21.596Z,8344.00
2024-03-24T09:38:21.562Z,7972.00
2024-03-24T09:39:21.515Z,7852.00
2024-03-24T09:40:21.546Z,6928.00
2024-03-24T09:41:21.476Z,5864.00
2024-03-24T09:42:21.479Z,4980.00
2024-03-24T09:43:21.466Z,4584.00
2024-03-24T09:44:21.459Z,4100.00
2024-03-24T09:45:21.445Z,3424.00
2024-03-24T09:46:21.430Z,3536.00
2024-03-24T09:47:21.442Z,3196.00
2024-03-24T09:48:21.366Z,3132.00
2024-03-24T09:49:21.377Z,3056.00
2024-03-24T09:50:21.347Z,2908.00
2024-03-24T09:51:21.350Z,2292.00
2024-03-24T09:52:21.350Z,2352.00
2024-03-24T09:53:21.337Z,2672.00
2024-03-24T09:54:21.289Z,3008.00
2024-03-24T09:55:21.304Z,3184.00
2024-03-24T09:56:21.257Z,3180.00
2024-03-24T09:57:21.268Z,3280.00
2024-03-24T09:58:21.275Z,3260.00
2024-03-24T09:59:21.253Z,3212.00
2024-03-24T10:00:21.225Z,3260.00
2024-03-24T10:01:21.281Z,3588.00
2024-03-24T10:02:21.179Z,3784.00
2024-03-24T10:03:21.204Z,3572.00
2024-03-24T10:04:21.157Z,3784.00
2024-03-24T10:05:21.166Z,4068.00
2024-03-24T10:06:21.130Z,4208.00
2024-03-24T10:07:21.136Z,4196.00
2024-03-24T10:08:21.109Z,4264.00
2024-03-24T10:09:21.110Z,4568.00
2024-03-24T10:10:21.097Z,4836.00
2024-03-24T10:11:21.106Z,4900.00
2024-03-24T10:12:21.050Z,4460.00
2024-03-24T10:13:21.057Z,4008.00
2024-03-24T10:14:21.091Z,3624.00
2024-03-24T10:15:21.050Z,3556.00
2024-03-24T10:16:21.000Z,3756.00
2024-03-24T10:17:22.906Z,4496.00
2024-03-24T10:18:20.972Z,4556.00
2024-03-24T10:19:20.985Z,4216.00
2024-03-24T10:20:20.960Z,4100.00
2024-03-24T10:21:20.951Z,3728.00
2024-03-24T10:22:20.937Z,3132.00
2024-03-24T10:23:20.914Z,3284.00
2024-03-24T10:24:23.465Z,4084.00
2024-03-24T10:25:20.892Z,4096.00
2024-03-24T10:26:20.892Z,4124.00
2024-03-24T10:27:20.887Z,3992.00
2024-03-24T10:28:20.860Z,4280.00
2024-03-24T10:29:20.848Z,4016.00
2024-03-24T10:30:20.830Z,3744.00
2024-03-24T10:31:20.802Z,4380.00
2024-03-24T10:32:27.759Z,4716.00
2024-03-24T10:33:20.807Z,4432.00
2024-03-24T10:34:20.778Z,4260.00
2024-03-24T10:35:20.779Z,4096.00
2024-03-24T10:36:20.736Z,3536.00
2024-03-24T10:37:20.744Z,2976.00
2024-03-24T10:38:20.726Z,3212.00
2024-03-24T10:39:20.726Z,3536.00
2024-03-24T10:40:20.713Z,3820.00
2024-03-24T10:41:20.691Z,3900.00
2024-03-24T10:42:20.687Z,3924.00
2024-03-24T10:43:20.654Z,4072.00
2024-03-24T10:44:20.670Z,4296.00
2024-03-24T10:45:20.633Z,4324.00
2024-03-24T10:46:23.350Z,3960.00
2024-03-24T10:47:20.602Z,3592.00
2024-03-24T10:48:20.587Z,3708.00
2024-03-24T10:49:20.601Z,3604.00
2024-03-24T10:50:20.561Z,3248.00
2024-03-24T10:51:20.538Z,3196.00
2024-03-24T10:52:20.574Z,3144.00
2024-03-24T10:53:20.516Z,2968.00
2024-03-24T10:54:20.524Z,2752.00
2024-03-24T10:55:22.955Z,2484.00
2024-03-24T10:56:20.483Z,2284.00
2024-03-24T10:57:20.505Z,2060.00
2024-03-24T10:58:20.480Z,1832.00
2024-03-24T10:59:20.461Z,1700.00
2024-03-24T11:00:20.428Z,1728.00
2024-03-24T11:01:20.421Z,1732.00
2024-03-24T11:02:20.425Z,1672.00
2024-03-24T11:03:20.418Z,1624.00
2024-03-24T11:04:20.402Z,1644.00
2024-03-24T11:05:21.436Z,1808.00
2024-03-24T11:06:20.349Z,2132.00
2024-03-24T11:07:20.333Z,2516.00
2024-03-24T11:08:20.328Z,2928.00
2024-03-24T11:09:20.353Z,3472.00
2024-03-24T11:10:20.299Z,4044.00
2024-03-24T11:11:20.302Z,4464.00
2024-03-24T11:12:21.413Z,4640.00
2024-03-24T11:13:20.293Z,4244.00
2024-03-24T11:14:20.276Z,3892.00
2024-03-24T11:15:20.245Z,3296.00
2024-03-24T11:16:20.240Z,2684.00
2024-03-24T11:17:20.229Z,2620.00
2024-03-24T11:18:20.224Z,2720.00
2024-03-24T11:19:20.216Z,2468.00
2024-03-24T11:20:20.212Z,2380.00
2024-03-24T11:21:20.170Z,2048.00
2024-03-24T11:22:20.168Z,2276.00
2024-03-24T11:23:20.149Z,2512.00
2024-03-24T11:24:20.143Z,2708.00
2024-03-24T11:25:20.106Z,2664.00
2024-03-24T11:26:20.108Z,2964.00
2024-03-24T11:27:20.101Z,2956.00
2024-03-24T11:28:20.099Z,2976.00
2024-03-24T11:29:20.056Z,3328.00
2024-03-24T11:30:20.071Z,3088.00
2024-03-24T11:31:20.031Z,3068.00
2024-03-24T11:32:20.035Z,3532.00
2024-03-24T11:33:20.032Z,4028.00
2024-03-24T11:34:20.021Z,3952.00
2024-03-24T11:35:20.003Z,4464.00
2024-03-24T11:36:20.004Z,4140.00
2024-03-24T11:37:19.949Z,4796.00
2024-03-24T11:38:19.968Z,4736.00
2024-03-24T11:39:19.924Z,4360.00
2024-03-24T11:40:19.927Z,4224.00
2024-03-24T11:41:19.890Z,3916.00
2024-03-24T11:42:19.919Z,4180.00
2024-03-24T11:43:19.898Z,4600.00
2024-03-24T11:44:19.876Z,5604.00
2024-03-24T11:45:19.859Z,5844.00
2024-03-24T11:46:19.837Z,5720.00
2024-03-24T11:47:19.843Z,6060.00
2024-03-24T11:48:19.822Z,6136.00
2024-03-24T11:49:19.802Z,5284.00
2024-03-24T11:50:19.804Z,4868.00
2024-03-24T11:51:19.815Z,4816.00
2024-03-24T11:52:19.772Z,4592.00
2024-03-24T11:53:19.760Z,4660.00
2024-03-24T11:54:19.735Z,5024.00
2024-03-24T11:55:19.727Z,4776.00
2024-03-24T11:56:19.728Z,4204.00
2024-03-24T11:57:19.702Z,3748.00
2024-03-24T11:58:19.709Z,3360.00
2024-03-24T11:59:19.669Z,3180.00
2024-03-24T12:00:19.681Z,2980.00
2024-03-24T12:01:19.652Z,2940.00
2024-03-24T12:02:19.648Z,3348.00
2024-03-24T12:03:19.645Z,3308.00
2024-03-24T12:04:19.635Z,2908.00
2024-03-24T12:05:19.588Z,2908.00
2024-03-24T12:06:19.591Z,2688.00
2024-03-24T12:07:19.564Z,2488.00
2024-03-24T12:08:19.578Z,2596.00
2024-03-24T12:09:19.553Z,2524.00
2024-03-24T12:10:19.549Z,2464.00
2024-03-24T12:11:19.544Z,2808.00
2024-03-24T12:12:19.538Z,2604.00
2024-03-24T12:13:19.486Z,2752.00
2024-03-24T12:14:19.472Z,3080.00
2024-03-24T12:15:19.454Z,4280.00
2024-03-24T12:16:19.481Z,4256.00
2024-03-24T12:17:19.445Z,3784.00
2024-03-24T12:18:19.429Z,3320.00
2024-03-24T12:19:19.403Z,3692.00
2024-03-24T12:20:19.396Z,3548.00
2024-03-24T12:21:19.393Z,3284.00
2024-03-24T12:22:19.368Z,3296.00
2024-03-24T12:23:19.378Z,3420.00
2024-03-24T12:24:19.343Z,3616.00
2024-03-24T12:25:19.341Z,3392.00
2024-03-24T12:26:19.359Z,3620.00
2024-03-24T12:27:19.318Z,3372.00
2024-03-24T12:28:19.301Z,4028.00
2024-03-24T12:29:19.317Z,4248.00
2024-03-24T12:30:19.266Z,4928.00
2024-03-24T12:31:19.253Z,6284.00
2024-03-24T12:32:19.242Z,6480.00
2024-03-24T12:33:19.230Z,5548.00